sensor_id;sensor_type;location;lat;lon;timestamp;P1;durP1;ratioP1;P2;durP2;ratioP2
13959;SDS011;7052;51.050;3.716;2023-04-03T00:01:18;7.77;;;5.10;;
13959;SDS011;7052;51.050;3.716;2023-04-03T00:03:45;6.17;;;5.00;;
13959;SDS011;7052;51.050;3.716;2023-04-03T00:06:12;6.27;;;4.97;;
13959;SDS011;7052;51.050;3.716;2023-04-03T00:08:40;7.33;;;5.30;;
13959;SDS011;7052;51.050;3.716;2023-04-03T00:11:07;6.47;;;4.80;;
13959;SDS011;7052;51.050;3.716;2023-04-03T00:13:35;7.50;;;5.00;;
13959;SDS011;7052;51.050;3.716;2023-04-03T00:16:03;5.37;;;4.67;;
13959;SDS011;7052;51.050;3.716;2023-04-03T00:18:37;6.83;;;5.10;;
13959;SDS011;7052;51.050;3.716;2023-04-03T00:21:06;6.30;;;4.50;;
13959;SDS011;7052;51.050;3.716;2023-04-03T00:23:34;5.77;;;4.17;;
13959;SDS011;7052;51.050;3.716;2023-04-03T00:26:03;6.67;;;4.53;;
13959;SDS011;7052;51.050;3.716;2023-04-03T00:28:31;5.27;;;4.40;;
13959;SDS011;7052;51.050;3.716;2023-04-03T00:30:58;6.50;;;5.20;;
13959;SDS011;7052;51.050;3.716;2023-04-03T00:33:27;5.17;;;4.30;;
13959;SDS011;7052;51.050;3.716;2023-04-03T00:35:57;6.33;;;4.40;;
13959;SDS011;7052;51.050;3.716;2023-04-03T00:38:25;5.30;;;4.10;;
13959;SDS011;7052;51.050;3.716;2023-04-03T00:40:52;5.27;;;4.13;;
13959;SDS011;7052;51.050;3.716;2023-04-03T00:43:20;6.60;;;4.40;;
13959;SDS011;7052;51.050;3.716;2023-04-03T00:45:49;4.93;;;4.40;;
13959;SDS011;7052;51.050;3.716;2023-04-03T00:48:20;6.63;;;4.43;;
13959;SDS011;7052;51.050;3.716;2023-04-03T00:50:49;6.20;;;4.10;;
13959;SDS011;7052;51.050;3.716;2023-04-03T00:53:21;4.80;;;4.30;;
13959;SDS011;7052;51.050;3.716;2023-04-03T00:55:51;6.23;;;4.60;;
13959;SDS011;7052;51.050;3.716;2023-04-03T00:58:20;4.67;;;4.00;;
13959;SDS011;7052;51.050;3.716;2023-04-03T01:00:55;6.37;;;4.40;;
13959;SDS011;7052;51.050;3.716;2023-04-03T01:03:25;6.30;;;4.80;;
13959;SDS011;7052;51.050;3.716;2023-04-03T01:05:52;6.93;;;4.00;;
13959;SDS011;7052;51.050;3.716;2023-04-03T01:08:23;5.80;;;4.60;;
13959;SDS011;7052;51.050;3.716;2023-04-03T01:10:50;5.53;;;4.23;;
13959;SDS011;7052;51.050;3.716;2023-04-03T01:13:19;5.70;;;4.67;;
13959;SDS011;7052;51.050;3.716;2023-04-03T01:15:48;4.93;;;4.03;;
13959;SDS011;7052;51.050;3.716;2023-04-03T01:18:16;8.17;;;5.00;;
13959;SDS011;7052;51.050;3.716;2023-04-03T01:20:58;5.73;;;4.80;;
13959;SDS011;7052;51.050;3.716;2023-04-03T01:26:49;5.30;;;4.53;;
13959;SDS011;7052;51.050;3.716;2023-04-03T01:29:17;7.27;;;4.73;;
13959;SDS011;7052;51.050;3.716;2023-04-03T01:31:47;5.77;;;4.43;;
13959;SDS011;7052;51.050;3.716;2023-04-03T01:34:16;5.50;;;4.37;;
13959;SDS011;7052;51.050;3.716;2023-04-03T01:36:44;5.60;;;4.67;;
13959;SDS011;7052;51.050;3.716;2023-04-03T01:39:11;5.93;;;4.20;;
13959;SDS011;7052;51.050;3.716;2023-04-03T01:41:38;4.90;;;4.40;;
13959;SDS011;7052;51.050;3.716;2023-04-03T01:44:06;6.73;;;4.50;;
13959;SDS011;7052;51.050;3.716;2023-04-03T01:46:33;7.50;;;4.50;;
13959;SDS011;7052;51.050;3.716;2023-04-03T01:49:02;7.50;;;4.87;;
13959;SDS011;7052;51.050;3.716;2023-04-03T01:51:30;7.23;;;4.40;;
13959;SDS011;7052;51.050;3.716;2023-04-03T01:53:58;5.30;;;4.80;;
13959;SDS011;7052;51.050;3.716;2023-04-03T01:56:25;5.57;;;4.70;;
13959;SDS011;7052;51.050;3.716;2023-04-03T01:58:53;6.10;;;4.60;;
13959;SDS011;7052;51.050;3.716;2023-04-03T02:01:21;5.90;;;4.70;;
13959;SDS011;7052;51.050;3.716;2023-04-03T02:03:48;5.87;;;4.60;;
13959;SDS011;7052;51.050;3.716;2023-04-03T02:06:16;5.87;;;4.63;;
13959;SDS011;7052;51.050;3.716;2023-04-03T02:08:43;5.80;;;4.70;;
13959;SDS011;7052;51.050;3.716;2023-04-03T02:11:11;6.63;;;5.27;;
13959;SDS011;7052;51.050;3.716;2023-04-03T02:13:41;5.80;;;5.10;;
13959;SDS011;7052;51.050;3.716;2023-04-03T02:16:08;5.63;;;4.80;;
13959;SDS011;7052;51.050;3.716;2023-04-03T02:18:37;5.17;;;4.47;;
13959;SDS011;7052;51.050;3.716;2023-04-03T02:21:05;7.60;;;4.90;;
13959;SDS011;7052;51.050;3.716;2023-04-03T02:23:33;6.10;;;4.67;;
13959;SDS011;7052;51.050;3.716;2023-04-03T02:26:03;7.33;;;4.90;;
13959;SDS011;7052;51.050;3.716;2023-04-03T02:28:32;6.27;;;4.77;;
13959;SDS011;7052;51.050;3.716;2023-04-03T02:30:59;7.70;;;5.20;;
13959;SDS011;7052;51.050;3.716;2023-04-03T02:33:26;7.30;;;4.63;;
13959;SDS011;7052;51.050;3.716;2023-04-03T02:35:53;5.77;;;4.90;;
13959;SDS011;7052;51.050;3.716;2023-04-03T02:38:23;5.87;;;4.50;;
13959;SDS011;7052;51.050;3.716;2023-04-03T02:40:53;6.50;;;5.00;;
13959;SDS011;7052;51.050;3.716;2023-04-03T02:43:27;7.23;;;5.07;;
13959;SDS011;7052;51.050;3.716;2023-04-03T02:45:56;5.97;;;4.60;;
13959;SDS011;7052;51.050;3.716;2023-04-03T02:48:23;6.33;;;4.53;;
13959;SDS011;7052;51.050;3.716;2023-04-03T02:50:53;6.73;;;4.77;;
13959;SDS011;7052;51.050;3.716;2023-04-03T02:53:20;6.13;;;4.87;;
13959;SDS011;7052;51.050;3.716;2023-04-03T02:55:48;5.63;;;4.70;;
13959;SDS011;7052;51.050;3.716;2023-04-03T02:58:16;5.50;;;4.80;;
13959;SDS011;7052;51.050;3.716;2023-04-03T03:00:44;7.07;;;5.17;;
13959;SDS011;7052;51.050;3.716;2023-04-03T03:03:13;6.80;;;5.33;;
13959;SDS011;7052;51.050;3.716;2023-04-03T03:05:40;5.33;;;4.83;;
13959;SDS011;7052;51.050;3.716;2023-04-03T03:08:07;8.17;;;4.90;;
13959;SDS011;7052;51.050;3.716;2023-04-03T03:10:35;6.20;;;5.03;;
13959;SDS011;7052;51.050;3.716;2023-04-03T03:13:02;7.00;;;5.20;;
13959;SDS011;7052;51.050;3.716;2023-04-03T03:15:30;6.53;;;5.53;;
13959;SDS011;7052;51.050;3.716;2023-04-03T03:18:01;8.33;;;5.07;;
13959;SDS011;7052;51.050;3.716;2023-04-03T03:20:29;5.83;;;4.80;;
13959;SDS011;7052;51.050;3.716;2023-04-03T03:22:58;7.03;;;5.40;;
13959;SDS011;7052;51.050;3.716;2023-04-03T03:25:25;8.90;;;5.67;;
13959;SDS011;7052;51.050;3.716;2023-04-03T03:27:52;9.13;;;5.60;;
13959;SDS011;7052;51.050;3.716;2023-04-03T03:30:21;8.23;;;5.50;;
13959;SDS011;7052;51.050;3.716;2023-04-03T03:32:49;8.60;;;6.03;;
13959;SDS011;7052;51.050;3.716;2023-04-03T03:35:18;7.53;;;5.90;;
13959;SDS011;7052;51.050;3.716;2023-04-03T03:37:45;10.30;;;5.90;;
13959;SDS011;7052;51.050;3.716;2023-04-03T03:40:12;7.10;;;5.77;;
13959;SDS011;7052;51.050;3.716;2023-04-03T03:42:39;9.10;;;6.18;;
13959;SDS011;7052;51.050;3.716;2023-04-03T03:45:07;7.17;;;5.83;;
13959;SDS011;7052;51.050;3.716;2023-04-03T03:47:35;7.40;;;6.20;;
13959;SDS011;7052;51.050;3.716;2023-04-03T03:50:10;8.97;;;6.20;;
13959;SDS011;7052;51.050;3.716;2023-04-03T03:52:38;8.63;;;6.60;;
13959;SDS011;7052;51.050;3.716;2023-04-03T03:55:05;7.73;;;6.00;;
13959;SDS011;7052;51.050;3.716;2023-04-03T03:57:33;8.83;;;6.30;;
13959;SDS011;7052;51.050;3.716;2023-04-03T04:00:00;9.33;;;6.67;;
13959;SDS011;7052;51.050;3.716;2023-04-03T04:02:28;8.27;;;5.97;;
13959;SDS011;7052;51.050;3.716;2023-04-03T04:04:55;6.80;;;5.93;;
13959;SDS011;7052;51.050;3.716;2023-04-03T04:07:24;7.70;;;5.90;;
13959;SDS011;7052;51.050;3.716;2023-04-03T04:09:55;9.77;;;5.73;;
13959;SDS011;7052;51.050;3.716;2023-04-03T04:12:24;9.00;;;6.10;;
13959;SDS011;7052;51.050;3.716;2023-04-03T04:14:51;10.03;;;6.50;;
13959;SDS011;7052;51.050;3.716;2023-04-03T04:17:18;8.47;;;6.30;;
13959;SDS011;7052;51.050;3.716;2023-04-03T04:19:44;8.57;;;5.97;;
13959;SDS011;7052;51.050;3.716;2023-04-03T04:22:14;8.47;;;5.80;;
13959;SDS011;7052;51.050;3.716;2023-04-03T04:24:44;8.67;;;6.40;;
13959;SDS011;7052;51.050;3.716;2023-04-03T04:27:11;8.43;;;6.50;;
13959;SDS011;7052;51.050;3.716;2023-04-03T04:29:38;7.93;;;6.17;;
13959;SDS011;7052;51.050;3.716;2023-04-03T04:32:05;9.43;;;5.97;;
13959;SDS011;7052;51.050;3.716;2023-04-03T04:34:32;7.97;;;6.40;;
13959;SDS011;7052;51.050;3.716;2023-04-03T04:37:02;9.83;;;6.37;;
13959;SDS011;7052;51.050;3.716;2023-04-03T04:39:34;7.77;;;6.20;;
13959;SDS011;7052;51.050;3.716;2023-04-03T04:42:04;8.27;;;6.10;;
13959;SDS011;7052;51.050;3.716;2023-04-03T04:44:37;8.87;;;5.97;;
13959;SDS011;7052;51.050;3.716;2023-04-03T04:47:06;9.03;;;6.30;;
13959;SDS011;7052;51.050;3.716;2023-04-03T04:49:33;11.37;;;6.20;;
13959;SDS011;7052;51.050;3.716;2023-04-03T04:52:03;10.40;;;6.70;;
13959;SDS011;7052;51.050;3.716;2023-04-03T04:54:31;10.43;;;6.40;;
13959;SDS011;7052;51.050;3.716;2023-04-03T04:56:58;7.07;;;6.00;;
13959;SDS011;7052;51.050;3.716;2023-04-03T04:59:27;9.20;;;6.17;;
13959;SDS011;7052;51.050;3.716;2023-04-03T05:01:53;7.97;;;6.47;;
13959;SDS011;7052;51.050;3.716;2023-04-03T05:04:23;9.03;;;6.57;;
13959;SDS011;7052;51.050;3.716;2023-04-03T05:06:50;9.63;;;6.50;;
13959;SDS011;7052;51.050;3.716;2023-04-03T05:09:17;9.27;;;6.40;;
13959;SDS011;7052;51.050;3.716;2023-04-03T05:11:46;9.97;;;6.80;;
13959;SDS011;7052;51.050;3.716;2023-04-03T05:14:13;8.77;;;6.53;;
13959;SDS011;7052;51.050;3.716;2023-04-03T05:16:44;10.37;;;6.80;;
13959;SDS011;7052;51.050;3.716;2023-04-03T05:19:10;10.60;;;6.77;;
13959;SDS011;7052;51.050;3.716;2023-04-03T05:21:41;8.63;;;6.30;;
13959;SDS011;7052;51.050;3.716;2023-04-03T05:24:08;11.07;;;7.07;;
13959;SDS011;7052;51.050;3.716;2023-04-03T05:26:37;10.27;;;7.13;;
13959;SDS011;7052;51.050;3.716;2023-04-03T05:29:06;9.97;;;6.77;;
13959;SDS011;7052;51.050;3.716;2023-04-03T05:31:33;8.97;;;6.93;;
13959;SDS011;7052;51.050;3.716;2023-04-03T05:34:08;11.73;;;7.80;;
13959;SDS011;7052;51.050;3.716;2023-04-03T05:36:36;8.90;;;6.93;;
13959;SDS011;7052;51.050;3.716;2023-04-03T05:39:04;10.07;;;7.10;;
13959;SDS011;7052;51.050;3.716;2023-04-03T05:41:32;10.07;;;7.17;;
13959;SDS011;7052;51.050;3.716;2023-04-03T05:44:00;12.17;;;8.60;;
13959;SDS011;7052;51.050;3.716;2023-04-03T05:46:28;12.53;;;8.03;;
13959;SDS011;7052;51.050;3.716;2023-04-03T05:48:56;10.10;;;7.43;;
13959;SDS011;7052;51.050;3.716;2023-04-03T05:51:24;10.90;;;7.63;;
13959;SDS011;7052;51.050;3.716;2023-04-03T05:53:56;11.10;;;7.33;;
13959;SDS011;7052;51.050;3.716;2023-04-03T05:56:32;7.97;;;6.97;;
13959;SDS011;7052;51.050;3.716;2023-04-03T05:59:00;14.87;;;8.70;;
13959;SDS011;7052;51.050;3.716;2023-04-03T06:01:30;8.13;;;7.10;;
13959;SDS011;7052;51.050;3.716;2023-04-03T06:03:57;13.47;;;8.77;;
13959;SDS011;7052;51.050;3.716;2023-04-03T06:06:26;11.23;;;7.80;;
13959;SDS011;7052;51.050;3.716;2023-04-03T06:09:12;10.20;;;7.60;;
13959;SDS011;7052;51.050;3.716;2023-04-03T06:11:39;10.00;;;7.80;;
13959;SDS011;7052;51.050;3.716;2023-04-03T06:14:07;10.40;;;8.13;;
13959;SDS011;7052;51.050;3.716;2023-04-03T06:16:34;13.43;;;8.30;;
13959;SDS011;7052;51.050;3.716;2023-04-03T06:19:04;11.50;;;7.57;;
13959;SDS011;7052;51.050;3.716;2023-04-03T06:21:36;8.90;;;7.60;;
13959;SDS011;7052;51.050;3.716;2023-04-03T06:24:04;12.60;;;8.53;;
13959;SDS011;7052;51.050;3.716;2023-04-03T06:26:33;11.40;;;8.10;;
13959;SDS011;7052;51.050;3.716;2023-04-03T06:29:05;10.07;;;8.33;;
13959;SDS011;7052;51.050;3.716;2023-04-03T06:31:34;9.63;;;7.47;;
13959;SDS011;7052;51.050;3.716;2023-04-03T06:34:05;10.10;;;7.43;;
13959;SDS011;7052;51.050;3.716;2023-04-03T06:36:33;11.07;;;7.07;;
13959;SDS011;7052;51.050;3.716;2023-04-03T06:39:10;7.50;;;6.57;;
13959;SDS011;7052;51.050;3.716;2023-04-03T06:41:40;13.87;;;7.13;;
13959;SDS011;7052;51.050;3.716;2023-04-03T06:44:08;8.33;;;6.47;;
13959;SDS011;7052;51.050;3.716;2023-04-03T06:46:38;11.97;;;6.73;;
13959;SDS011;7052;51.050;3.716;2023-04-03T06:49:09;6.63;;;5.90;;
13959;SDS011;7052;51.050;3.716;2023-04-03T06:51:38;12.03;;;6.17;;
13959;SDS011;7052;51.050;3.716;2023-04-03T06:54:05;10.57;;;6.47;;
13959;SDS011;7052;51.050;3.716;2023-04-03T06:56:33;12.70;;;6.17;;
13959;SDS011;7052;51.050;3.716;2023-04-03T06:59:00;9.60;;;6.30;;
13959;SDS011;7052;51.050;3.716;2023-04-03T07:01:28;8.03;;;5.73;;
13959;SDS011;7052;51.050;3.716;2023-04-03T07:03:57;10.37;;;6.50;;
13959;SDS011;7052;51.050;3.716;2023-04-03T07:06:24;11.87;;;5.93;;
13959;SDS011;7052;51.050;3.716;2023-04-03T07:08:55;8.07;;;5.73;;
13959;SDS011;7052;51.050;3.716;2023-04-03T07:11:23;9.27;;;6.30;;
13959;SDS011;7052;51.050;3.716;2023-04-03T07:13:51;10.40;;;6.33;;
13959;SDS011;7052;51.050;3.716;2023-04-03T07:16:21;7.33;;;5.60;;
13959;SDS011;7052;51.050;3.716;2023-04-03T07:18:50;10.00;;;5.60;;
13959;SDS011;7052;51.050;3.716;2023-04-03T07:21:17;9.73;;;6.03;;
13959;SDS011;7052;51.050;3.716;2023-04-03T07:23:46;12.00;;;5.70;;
13959;SDS011;7052;51.050;3.716;2023-04-03T07:26:17;10.87;;;6.20;;
13959;SDS011;7052;51.050;3.716;2023-04-03T07:28:45;11.80;;;6.03;;
13959;SDS011;7052;51.050;3.716;2023-04-03T07:31:13;9.53;;;5.83;;
13959;SDS011;7052;51.050;3.716;2023-04-03T07:33:42;7.23;;;5.47;;
13959;SDS011;7052;51.050;3.716;2023-04-03T07:36:10;5.70;;;5.03;;
13959;SDS011;7052;51.050;3.716;2023-04-03T07:38:40;9.50;;;6.03;;
13959;SDS011;7052;51.050;3.716;2023-04-03T07:41:11;9.47;;;5.83;;
13959;SDS011;7052;51.050;3.716;2023-04-03T07:43:44;5.90;;;5.23;;
13959;SDS011;7052;51.050;3.716;2023-04-03T07:46:11;12.73;;;5.83;;
13959;SDS011;7052;51.050;3.716;2023-04-03T07:48:39;8.17;;;5.73;;
13959;SDS011;7052;51.050;3.716;2023-04-03T07:51:09;10.17;;;5.60;;
13959;SDS011;7052;51.050;3.716;2023-04-03T07:53:38;9.27;;;6.07;;
13959;SDS011;7052;51.050;3.716;2023-04-03T07:56:05;8.53;;;5.77;;
13959;SDS011;7052;51.050;3.716;2023-04-03T07:58:32;7.30;;;5.80;;
13959;SDS011;7052;51.050;3.716;2023-04-03T08:01:01;7.30;;;5.97;;
13959;SDS011;7052;51.050;3.716;2023-04-03T08:03:29;7.20;;;6.13;;
13959;SDS011;7052;51.050;3.716;2023-04-03T08:06:00;8.77;;;5.90;;
13959;SDS011;7052;51.050;3.716;2023-04-03T08:08:29;7.87;;;6.07;;
13959;SDS011;7052;51.050;3.716;2023-04-03T08:10:58;8.33;;;6.87;;
13959;SDS011;7052;51.050;3.716;2023-04-03T08:13:26;8.70;;;6.13;;
13959;SDS011;7052;51.050;3.716;2023-04-03T08:15:54;13.40;;;6.70;;
13959;SDS011;7052;51.050;3.716;2023-04-03T08:18:25;7.83;;;6.83;;
13959;SDS011;7052;51.050;3.716;2023-04-03T08:20:54;9.53;;;6.93;;
13959;SDS011;7052;51.050;3.716;2023-04-03T08:23:22;9.80;;;6.73;;
13959;SDS011;7052;51.050;3.716;2023-04-03T08:25:49;11.43;;;7.33;;
13959;SDS011;7052;51.050;3.716;2023-04-03T08:28:16;9.57;;;6.33;;
13959;SDS011;7052;51.050;3.716;2023-04-03T08:30:46;11.03;;;6.30;;
13959;SDS011;7052;51.050;3.716;2023-04-03T08:33:13;12.23;;;6.47;;
13959;SDS011;7052;51.050;3.716;2023-04-03T08:35:42;9.97;;;6.20;;
13959;SDS011;7052;51.050;3.716;2023-04-03T08:38:09;7.30;;;6.00;;
13959;SDS011;7052;51.050;3.716;2023-04-03T08:40:38;9.67;;;5.60;;
13959;SDS011;7052;51.050;3.716;2023-04-03T08:43:13;7.97;;;6.23;;
13959;SDS011;7052;51.050;3.716;2023-04-03T08:45:57;7.33;;;6.00;;
13959;SDS011;7052;51.050;3.716;2023-04-03T08:48:29;7.27;;;6.10;;
13959;SDS011;7052;51.050;3.716;2023-04-03T08:51:02;7.47;;;5.83;;
13959;SDS011;7052;51.050;3.716;2023-04-03T08:53:37;8.27;;;6.10;;
13959;SDS011;7052;51.050;3.716;2023-04-03T08:56:11;8.00;;;5.47;;
13959;SDS011;7052;51.050;3.716;2023-04-03T08:58:45;9.47;;;5.73;;
13959;SDS011;7052;51.050;3.716;2023-04-03T09:01:19;8.63;;;5.80;;
13959;SDS011;7052;51.050;3.716;2023-04-03T09:03:49;7.20;;;5.17;;
13959;SDS011;7052;51.050;3.716;2023-04-03T09:06:25;9.43;;;5.20;;
13959;SDS011;7052;51.050;3.716;2023-04-03T09:09:00;6.07;;;4.23;;
13959;SDS011;7052;51.050;3.716;2023-04-03T09:11:40;6.00;;;3.90;;
13959;SDS011;7052;51.050;3.716;2023-04-03T09:14:18;6.73;;;3.60;;
13959;SDS011;7052;51.050;3.716;2023-04-03T09:16:53;5.10;;;3.40;;
13959;SDS011;7052;51.050;3.716;2023-04-03T09:19:28;7.27;;;3.13;;
13959;SDS011;7052;51.050;3.716;2023-04-03T09:22:16;4.50;;;2.93;;
13959;SDS011;7052;51.050;3.716;2023-04-03T09:24:47;4.17;;;3.07;;
13959;SDS011;7052;51.050;3.716;2023-04-03T09:27:22;7.37;;;3.27;;
13959;SDS011;7052;51.050;3.716;2023-04-03T09:29:49;4.20;;;2.80;;
13959;SDS011;7052;51.050;3.716;2023-04-03T09:32:22;7.00;;;2.90;;
13959;SDS011;7052;51.050;3.716;2023-04-03T09:34:52;5.07;;;3.20;;
13959;SDS011;7052;51.050;3.716;2023-04-03T09:37:36;3.53;;;2.50;;
13959;SDS011;7052;51.050;3.716;2023-04-03T09:40:05;5.93;;;3.10;;
13959;SDS011;7052;51.050;3.716;2023-04-03T09:42:55;4.43;;;2.67;;
13959;SDS011;7052;51.050;3.716;2023-04-03T09:45:26;5.70;;;3.20;;
13959;SDS011;7052;51.050;3.716;2023-04-03T09:48:06;5.93;;;3.43;;
13959;SDS011;7052;51.050;3.716;2023-04-03T09:50:34;4.80;;;3.37;;
13959;SDS011;7052;51.050;3.716;2023-04-03T09:53:05;6.50;;;3.60;;
13959;SDS011;7052;51.050;3.716;2023-04-03T09:55:34;5.83;;;3.33;;
13959;SDS011;7052;51.050;3.716;2023-04-03T09:58:24;8.50;;;3.80;;
13959;SDS011;7052;51.050;3.716;2023-04-03T10:00:56;8.43;;;3.47;;
13959;SDS011;7052;51.050;3.716;2023-04-03T10:03:28;4.20;;;2.93;;
13959;SDS011;7052;51.050;3.716;2023-04-03T10:05:57;7.63;;;3.40;;
13959;SDS011;7052;51.050;3.716;2023-04-03T10:08:26;5.20;;;2.80;;
13959;SDS011;7052;51.050;3.716;2023-04-03T10:11:05;4.10;;;2.80;;
13959;SDS011;7052;51.050;3.716;2023-04-03T10:16:43;5.17;;;3.10;;
13959;SDS011;7052;51.050;3.716;2023-04-03T10:19:24;6.90;;;3.30;;
13959;SDS011;7052;51.050;3.716;2023-04-03T10:22:04;4.80;;;2.90;;
13959;SDS011;7052;51.050;3.716;2023-04-03T10:24:44;3.90;;;2.63;;
13959;SDS011;7052;51.050;3.716;2023-04-03T10:27:22;3.50;;;3.07;;
13959;SDS011;7052;51.050;3.716;2023-04-03T10:30:01;4.60;;;2.97;;
13959;SDS011;7052;51.050;3.716;2023-04-03T10:32:45;7.57;;;3.20;;
13959;SDS011;7052;51.050;3.716;2023-04-03T10:35:25;5.53;;;3.27;;
13959;SDS011;7052;51.050;3.716;2023-04-03T10:38:04;5.67;;;3.20;;
13959;SDS011;7052;51.050;3.716;2023-04-03T10:40:40;4.83;;;3.10;;
13959;SDS011;7052;51.050;3.716;2023-04-03T10:43:15;4.30;;;2.93;;
13959;SDS011;7052;51.050;3.716;2023-04-03T10:45:55;4.93;;;3.20;;
13959;SDS011;7052;51.050;3.716;2023-04-03T10:48:34;5.30;;;2.97;;
13959;SDS011;7052;51.050;3.716;2023-04-03T10:51:18;4.97;;;2.77;;
13959;SDS011;7052;51.050;3.716;2023-04-03T10:53:55;5.83;;;3.20;;
13959;SDS011;7052;51.050;3.716;2023-04-03T10:56:28;3.67;;;2.60;;
13959;SDS011;7052;51.050;3.716;2023-04-03T10:59:01;5.80;;;3.03;;
13959;SDS011;7052;51.050;3.716;2023-04-03T11:01:37;4.00;;;2.40;;
13959;SDS011;7052;51.050;3.716;2023-04-03T11:04:06;3.23;;;2.50;;
13959;SDS011;7052;51.050;3.716;2023-04-03T11:06:36;3.90;;;2.80;;
13959;SDS011;7052;51.050;3.716;2023-04-03T11:09:10;3.43;;;2.50;;
13959;SDS011;7052;51.050;3.716;2023-04-03T11:11:43;4.43;;;2.27;;
13959;SDS011;7052;51.050;3.716;2023-04-03T11:14:13;3.77;;;2.10;;
13959;SDS011;7052;51.050;3.716;2023-04-03T11:16:53;3.50;;;2.10;;
13959;SDS011;7052;51.050;3.716;2023-04-03T11:19:34;3.47;;;2.23;;
13959;SDS011;7052;51.050;3.716;2023-04-03T11:22:09;4.57;;;2.40;;
13959;SDS011;7052;51.050;3.716;2023-04-03T11:24:43;6.17;;;2.70;;
13959;SDS011;7052;51.050;3.716;2023-04-03T11:27:22;5.60;;;2.37;;
13959;SDS011;7052;51.050;3.716;2023-04-03T11:30:00;3.90;;;2.20;;
13959;SDS011;7052;51.050;3.716;2023-04-03T11:32:37;2.87;;;2.10;;
13959;SDS011;7052;51.050;3.716;2023-04-03T11:35:15;4.00;;;1.90;;
13959;SDS011;7052;51.050;3.716;2023-04-03T11:37:52;3.13;;;1.90;;
13959;SDS011;7052;51.050;3.716;2023-04-03T11:40:21;3.90;;;2.30;;
13959;SDS011;7052;51.050;3.716;2023-04-03T11:42:52;6.07;;;2.23;;
13959;SDS011;7052;51.050;3.716;2023-04-03T12:03:35;4.17;;;2.10;;
13959;SDS011;7052;51.050;3.716;2023-04-03T12:09:29;4.13;;;2.97;;
13959;SDS011;7052;51.050;3.716;2023-04-03T12:14:52;4.47;;;1.63;;
13959;SDS011;7052;51.050;3.716;2023-04-03T12:17:26;3.23;;;2.07;;
13959;SDS011;7052;51.050;3.716;2023-04-03T12:19:56;4.30;;;2.03;;
13959;SDS011;7052;51.050;3.716;2023-04-03T12:22:24;3.07;;;1.97;;
13959;SDS011;7052;51.050;3.716;2023-04-03T12:24:53;4.07;;;2.53;;
13959;SDS011;7052;51.050;3.716;2023-04-03T12:27:24;4.47;;;2.20;;
13959;SDS011;7052;51.050;3.716;2023-04-03T12:29:55;2.83;;;1.90;;
13959;SDS011;7052;51.050;3.716;2023-04-03T12:32:34;3.70;;;2.07;;
13959;SDS011;7052;51.050;3.716;2023-04-03T12:35:19;6.60;;;2.60;;
13959;SDS011;7052;51.050;3.716;2023-04-03T12:38:11;3.33;;;2.17;;
13959;SDS011;7052;51.050;3.716;2023-04-03T12:41:04;4.30;;;2.20;;
13959;SDS011;7052;51.050;3.716;2023-04-03T12:43:55;3.93;;;2.00;;
13959;SDS011;7052;51.050;3.716;2023-04-03T12:46:37;5.40;;;3.30;;
13959;SDS011;7052;51.050;3.716;2023-04-03T12:49:14;2.90;;;2.00;;
13959;SDS011;7052;51.050;3.716;2023-04-03T12:51:54;3.10;;;2.00;;
13959;SDS011;7052;51.050;3.716;2023-04-03T12:54:22;3.33;;;2.20;;
13959;SDS011;7052;51.050;3.716;2023-04-03T12:56:52;4.30;;;2.03;;
13959;SDS011;7052;51.050;3.716;2023-04-03T12:59:36;3.87;;;2.40;;
13959;SDS011;7052;51.050;3.716;2023-04-03T13:02:08;4.83;;;2.10;;
13959;SDS011;7052;51.050;3.716;2023-04-03T13:04:49;3.07;;;2.10;;
13959;SDS011;7052;51.050;3.716;2023-04-03T13:07:21;4.00;;;1.90;;
13959;SDS011;7052;51.050;3.716;2023-04-03T13:09:56;7.67;;;2.27;;
13959;SDS011;7052;51.050;3.716;2023-04-03T13:12:45;4.53;;;2.50;;
13959;SDS011;7052;51.050;3.716;2023-04-03T13:15:14;8.43;;;2.37;;
13959;SDS011;7052;51.050;3.716;2023-04-03T13:17:43;2.70;;;2.13;;
13959;SDS011;7052;51.050;3.716;2023-04-03T13:20:14;2.57;;;1.83;;
13959;SDS011;7052;51.050;3.716;2023-04-03T13:22:50;1.87;;;1.70;;
13959;SDS011;7052;51.050;3.716;2023-04-03T13:25:23;2.37;;;1.97;;
13959;SDS011;7052;51.050;3.716;2023-04-03T13:27:54;2.80;;;2.00;;
13959;SDS011;7052;51.050;3.716;2023-04-03T13:30:24;2.60;;;2.10;;
13959;SDS011;7052;51.050;3.716;2023-04-03T13:32:55;2.80;;;1.97;;
13959;SDS011;7052;51.050;3.716;2023-04-03T13:35:25;3.13;;;2.07;;
13959;SDS011;7052;51.050;3.716;2023-04-03T13:37:59;5.17;;;1.93;;
13959;SDS011;7052;51.050;3.716;2023-04-03T13:40:30;4.97;;;2.23;;
13959;SDS011;7052;51.050;3.716;2023-04-03T13:42:58;4.23;;;1.70;;
13959;SDS011;7052;51.050;3.716;2023-04-03T13:45:28;7.10;;;2.67;;
13959;SDS011;7052;51.050;3.716;2023-04-03T13:48:07;3.90;;;2.03;;
13959;SDS011;7052;51.050;3.716;2023-04-03T13:50:52;4.00;;;1.97;;
13959;SDS011;7052;51.050;3.716;2023-04-03T13:53:24;2.60;;;1.70;;
13959;SDS011;7052;51.050;3.716;2023-04-03T13:56:04;2.40;;;1.70;;
13959;SDS011;7052;51.050;3.716;2023-04-03T13:58:37;4.93;;;1.60;;
13959;SDS011;7052;51.050;3.716;2023-04-03T14:01:09;3.70;;;2.20;;
13959;SDS011;7052;51.050;3.716;2023-04-03T14:03:43;3.93;;;1.80;;
13959;SDS011;7052;51.050;3.716;2023-04-03T14:06:13;2.37;;;1.67;;
13959;SDS011;7052;51.050;3.716;2023-04-03T14:08:43;3.53;;;1.83;;
13959;SDS011;7052;51.050;3.716;2023-04-03T14:11:14;2.43;;;1.70;;
13959;SDS011;7052;51.050;3.716;2023-04-03T14:13:42;2.60;;;1.80;;
13959;SDS011;7052;51.050;3.716;2023-04-03T14:16:16;2.97;;;1.80;;
13959;SDS011;7052;51.050;3.716;2023-04-03T14:18:46;3.03;;;1.83;;
13959;SDS011;7052;51.050;3.716;2023-04-03T14:21:15;3.93;;;1.80;;
13959;SDS011;7052;51.050;3.716;2023-04-03T14:23:48;4.30;;;2.20;;
13959;SDS011;7052;51.050;3.716;2023-04-03T14:26:17;2.93;;;1.90;;
13959;SDS011;7052;51.050;3.716;2023-04-03T14:28:46;4.87;;;1.90;;
13959;SDS011;7052;51.050;3.716;2023-04-03T14:31:15;3.00;;;1.90;;
13959;SDS011;7052;51.050;3.716;2023-04-03T14:33:52;4.00;;;2.10;;
13959;SDS011;7052;51.050;3.716;2023-04-03T14:36:20;4.37;;;1.97;;
13959;SDS011;7052;51.050;3.716;2023-04-03T14:38:51;3.57;;;1.80;;
13959;SDS011;7052;51.050;3.716;2023-04-03T14:41:19;2.43;;;1.93;;
13959;SDS011;7052;51.050;3.716;2023-04-03T14:43:49;2.67;;;1.80;;
13959;SDS011;7052;51.050;3.716;2023-04-03T14:46:17;4.63;;;1.97;;
13959;SDS011;7052;51.050;3.716;2023-04-03T14:48:47;4.70;;;1.90;;
13959;SDS011;7052;51.050;3.716;2023-04-03T14:51:15;3.23;;;1.90;;
13959;SDS011;7052;51.050;3.716;2023-04-03T14:53:43;6.30;;;1.97;;
13959;SDS011;7052;51.050;3.716;2023-04-03T14:56:16;3.10;;;2.20;;
13959;SDS011;7052;51.050;3.716;2023-04-03T14:58:44;2.23;;;2.00;;
13959;SDS011;7052;51.050;3.716;2023-04-03T15:01:17;2.97;;;1.90;;
13959;SDS011;7052;51.050;3.716;2023-04-03T15:03:45;2.20;;;1.83;;
13959;SDS011;7052;51.050;3.716;2023-04-03T15:06:19;3.97;;;2.13;;
13959;SDS011;7052;51.050;3.716;2023-04-03T15:08:48;3.53;;;1.87;;
13959;SDS011;7052;51.050;3.716;2023-04-03T15:11:17;3.23;;;2.00;;
13959;SDS011;7052;51.050;3.716;2023-04-03T15:13:48;5.00;;;2.10;;
13959;SDS011;7052;51.050;3.716;2023-04-03T15:16:16;3.33;;;2.10;;
13959;SDS011;7052;51.050;3.716;2023-04-03T15:18:46;2.70;;;2.17;;
13959;SDS011;7052;51.050;3.716;2023-04-03T15:21:14;3.17;;;1.87;;
13959;SDS011;7052;51.050;3.716;2023-04-03T15:23:42;3.90;;;2.10;;
13959;SDS011;7052;51.050;3.716;2023-04-03T15:26:09;2.43;;;1.70;;
13959;SDS011;7052;51.050;3.716;2023-04-03T15:28:38;2.40;;;1.97;;
13959;SDS011;7052;51.050;3.716;2023-04-03T15:31:09;5.97;;;2.63;;
13959;SDS011;7052;51.050;3.716;2023-04-03T15:33:36;3.37;;;1.80;;
13959;SDS011;7052;51.050;3.716;2023-04-03T15:36:04;3.63;;;2.00;;
13959;SDS011;7052;51.050;3.716;2023-04-03T15:38:31;2.67;;;1.90;;
13959;SDS011;7052;51.050;3.716;2023-04-03T15:40:58;3.40;;;1.80;;
13959;SDS011;7052;51.050;3.716;2023-04-03T15:43:26;2.80;;;1.73;;
13959;SDS011;7052;51.050;3.716;2023-04-03T15:45:57;5.67;;;2.47;;
13959;SDS011;7052;51.050;3.716;2023-04-03T15:48:25;3.03;;;2.00;;
13959;SDS011;7052;51.050;3.716;2023-04-03T15:50:58;3.93;;;2.37;;
13959;SDS011;7052;51.050;3.716;2023-04-03T15:53:28;3.50;;;2.17;;